createdAt,value
2023-05-25T00:00:14.193Z,13.53
2023-05-25T00:05:15.813Z,13.15
2023-05-25T00:10:17.299Z,13.14
2023-05-25T00:15:19.027Z,13.26
2023-05-25T00:20:20.782Z,13.33
2023-05-25T00:25:22.161Z,13.23
2023-05-25T00:30:23.580Z,13.07
2023-05-25T00:35:24.956Z,13.21
2023-05-25T00:40:26.352Z,13.01
2023-05-25T00:45:27.785Z,13.05
2023-05-25T00:50:38.036Z,12.93
2023-05-25T00:55:46.146Z,13.05
2023-05-25T01:00:49.652Z,12.97
2023-05-25T01:05:54.083Z,12.96
2023-05-25T01:10:57.300Z,12.97
2023-05-25T01:15:58.941Z,12.96
2023-05-25T01:21:13.375Z,12.77
2023-05-25T01:26:16.658Z,12.89
2023-05-25T01:31:20.785Z,13.01
2023-05-25T01:36:22.340Z,12.75
2023-05-25T01:41:23.715Z,12.88
2023-05-25T01:46:36.934Z,12.97
2023-05-25T01:52:04.142Z,12.93
2023-05-25T01:57:13.509Z,12.94
2023-05-25T02:02:17.541Z,12.89
2023-05-25T02:07:19.014Z,12.86
2023-05-25T02:12:20.466Z,12.90
2023-05-25T02:17:21.886Z,12.84
2023-05-25T02:22:23.433Z,12.78
2023-05-25T02:27:24.795Z,12.67
2023-05-25T02:32:26.208Z,12.67
2023-05-25T02:37:27.564Z,12.57
2023-05-25T02:42:28.904Z,12.64
2023-05-25T02:47:30.410Z,12.62
2023-05-25T02:52:32.613Z,12.56
2023-05-25T02:57:34.079Z,12.49
2023-05-25T03:02:35.487Z,12.54
2023-05-25T03:07:37.088Z,12.52
2023-05-25T03:12:38.515Z,12.60
2023-05-25T03:17:40.160Z,12.59
2023-05-25T03:22:41.649Z,12.47
2023-05-25T03:27:43.091Z,12.49
2023-05-25T03:32:44.545Z,12.53
2023-05-25T03:37:45.941Z,12.49
2023-05-25T03:42:47.282Z,12.49
2023-05-25T03:47:49.975Z,12.44
2023-05-25T03:52:51.759Z,12.46
2023-05-25T03:57:53.160Z,12.52
2023-05-25T04:02:54.610Z,12.44
2023-05-25T04:07:56.091Z,12.49
2023-05-25T04:12:57.546Z,12.46
2023-05-25T04:17:59.599Z,12.50
2023-05-25T04:23:01.261Z,12.47
2023-05-25T04:28:02.569Z,12.46
2023-05-25T04:33:04.408Z,12.36
2023-05-25T04:38:07.034Z,12.44
2023-05-25T04:43:09.804Z,12.38
2023-05-25T04:48:13.107Z,12.47
2023-05-25T04:53:14.491Z,12.57
2023-05-25T04:58:16.492Z,12.52
2023-05-25T05:03:18.273Z,12.62
2023-05-25T05:08:19.952Z,12.67
2023-05-25T05:13:21.397Z,12.64
2023-05-25T05:18:22.788Z,12.70
2023-05-25T05:23:24.230Z,12.87
2023-05-25T05:28:27.357Z,12.99
2023-05-25T05:33:28.859Z,12.96
2023-05-25T05:38:30.835Z,13.07
2023-05-25T05:43:32.206Z,13.13
2023-05-25T05:48:33.698Z,12.95
2023-05-25T05:53:38.009Z,13.22
2023-05-25T05:58:39.475Z,13.46
2023-05-25T06:03:40.904Z,13.58
2023-05-25T06:08:43.292Z,13.55
2023-05-25T06:13:46.449Z,13.30
2023-05-25T06:18:48.050Z,13.41
2023-05-25T06:23:49.462Z,13.73
2023-05-25T06:28:51.171Z,13.90
2023-05-25T06:33:52.511Z,13.84
2023-05-25T06:38:53.966Z,14.06
2023-05-25T06:43:55.414Z,14.17
2023-05-25T06:48:56.907Z,14.42
2023-05-25T06:53:58.268Z,14.46
2023-05-25T06:58:59.826Z,14.46
2023-05-25T07:04:01.554Z,14.45
2023-05-25T07:09:03.330Z,14.78
2023-05-25T07:14:04.677Z,14.59
2023-05-25T07:19:06.065Z,14.88
2023-05-25T07:24:07.744Z,15.26
2023-05-25T07:29:10.625Z,15.41
2023-05-25T07:34:11.980Z,15.70
2023-05-25T07:39:13.747Z,15.69
2023-05-25T07:44:15.083Z,15.90
2023-05-25T07:49:16.566Z,16.25
2023-05-25T07:54:17.902Z,16.53
2023-05-25T07:59:19.507Z,16.75
2023-05-25T08:04:20.919Z,16.92
2023-05-25T08:09:22.589Z,17.04
2023-05-25T08:14:24.129Z,17.19
2023-05-25T08:19:25.513Z,17.34
2023-05-25T08:24:26.872Z,17.48
2023-05-25T08:29:28.244Z,17.66
2023-05-25T08:34:29.642Z,17.88
2023-05-25T08:39:32.861Z,17.92
2023-05-25T08:44:36.885Z,18.20
2023-05-25T08:49:39.860Z,18.33
2023-05-25T08:54:44.466Z,18.54
2023-05-25T09:00:10.477Z,18.57
2023-05-25T09:05:13.616Z,18.60
2023-05-25T09:10:15.491Z,18.88
2023-05-25T09:15:16.937Z,19.04
2023-05-25T09:20:19.359Z,19.24
2023-05-25T09:25:20.802Z,18.98
2023-05-25T09:30:22.451Z,19.50
2023-05-25T09:35:24.436Z,19.70
2023-05-25T09:40:26.171Z,19.88
2023-05-25T09:45:27.756Z,20.01
2023-05-25T09:50:29.719Z,19.64
2023-05-25T09:55:44.009Z,19.81
2023-05-25T10:00:54.725Z,20.19
2023-05-25T10:05:56.397Z,20.34
2023-05-25T10:10:58.278Z,20.58
2023-05-25T10:16:01.308Z,20.76
2023-05-25T10:21:05.029Z,21.09
2023-05-25T10:26:09.315Z,21.33
2023-05-25T10:31:12.368Z,21.23
2023-05-25T10:36:14.969Z,21.26
2023-05-25T10:41:17.904Z,21.65
2023-05-25T10:46:19.499Z,21.93
2023-05-25T10:51:22.354Z,21.98
2023-05-25T10:56:23.777Z,22.15
2023-05-25T11:01:25.727Z,22.37
2023-05-25T11:06:44.163Z,22.32
2023-05-25T11:11:48.689Z,22.48
2023-05-25T11:17:13.871Z,22.65
2023-05-25T11:22:19.174Z,22.89
2023-05-25T11:27:31.354Z,23.02
2023-05-25T11:32:32.769Z,22.95
2023-05-25T11:37:34.494Z,23.02
2023-05-25T11:42:36.035Z,22.91
2023-05-25T11:47:38.208Z,23.16
2023-05-25T11:52:40.109Z,22.98
2023-05-25T11:57:41.464Z,22.97
2023-05-25T12:02:43.556Z,22.84
2023-05-25T12:07:46.874Z,23.11
2023-05-25T12:12:50.320Z,23.28
2023-05-25T12:17:53.590Z,23.28
2023-05-25T12:22:55.285Z,23.37
2023-05-25T12:28:13.536Z,23.44
2023-05-25T12:33:15.754Z,23.42
2023-05-25T12:38:19.269Z,23.45
2023-05-25T12:43:21.503Z,23.58
2023-05-25T12:48:26.719Z,23.39
2023-05-25T12:53:29.029Z,23.18
2023-05-25T12:58:30.588Z,23.17
2023-05-25T13:03:32.169Z,22.86
2023-05-25T13:08:33.752Z,23.02
2023-05-25T13:13:35.878Z,23.01
2023-05-25T13:18:37.351Z,23.03
2023-05-25T13:23:38.700Z,22.99
2023-05-25T13:28:40.584Z,23.07
2023-05-25T13:33:42.118Z,22.97
2023-05-25T13:38:45.089Z,22.98
2023-05-25T13:43:47.338Z,23.00
2023-05-25T13:48:48.732Z,22.88
2023-05-25T13:53:50.412Z,22.89
2023-05-25T13:58:51.982Z,22.78
2023-05-25T14:03:53.509Z,22.68
2023-05-25T14:08:55.128Z,22.65
2023-05-25T14:13:56.621Z,22.52
2023-05-25T14:18:57.985Z,22.52
2023-05-25T14:23:59.690Z,22.53
2023-05-25T14:29:02.419Z,22.50
2023-05-25T14:34:03.801Z,22.40
2023-05-25T14:39:05.183Z,22.31
2023-05-25T14:44:06.542Z,22.24
2023-05-25T14:49:07.874Z,22.22
2023-05-25T14:54:11.105Z,22.27
2023-05-25T14:59:12.521Z,22.17
2023-05-25T15:04:14.284Z,22.16
2023-05-25T15:09:16.860Z,22.02
2023-05-25T15:14:18.318Z,22.01
2023-05-25T15:19:19.725Z,21.95
2023-05-25T15:24:21.512Z,21.84
2023-05-25T15:29:22.898Z,21.98
2023-05-25T15:34:24.289Z,21.96
2023-05-25T15:39:25.619Z,21.86
2023-05-25T15:44:27.019Z,21.80
2023-05-25T15:49:28.440Z,21.91
2023-05-25T15:54:29.914Z,21.83
2023-05-25T15:59:31.353Z,21.70
2023-05-25T16:04:32.860Z,21.62
2023-05-25T16:09:34.344Z,21.50
2023-05-25T16:14:36.117Z,21.52
2023-05-25T16:19:37.491Z,21.56
2023-05-25T16:24:38.930Z,21.45
2023-05-25T16:29:40.448Z,21.37
2023-05-25T16:34:41.971Z,21.28
2023-05-25T16:39:43.495Z,21.26
2023-05-25T16:44:44.953Z,21.27
2023-05-25T16:49:46.314Z,21.19
2023-05-25T16:54:47.869Z,21.09
2023-05-25T16:59:49.685Z,21.08
2023-05-25T17:04:52.173Z,21.05
2023-05-25T17:09:53.524Z,21.00
2023-05-25T17:14:54.888Z,20.97
2023-05-25T17:19:56.362Z,20.94
2023-05-25T17:24:58.018Z,20.92
2023-05-25T17:29:59.400Z,20.84
2023-05-25T17:35:00.791Z,20.79
2023-05-25T17:40:02.207Z,20.69
2023-05-25T17:45:03.948Z,20.52
2023-05-25T17:50:05.878Z,20.53
2023-05-25T17:55:07.828Z,20.51
2023-05-25T18:00:09.776Z,20.34
2023-05-25T18:05:11.201Z,20.31
2023-05-25T18:10:14.562Z,20.21
2023-05-25T18:15:16.167Z,20.18
2023-05-25T18:20:17.710Z,20.03
2023-05-25T18:25:19.446Z,19.94
2023-05-25T18:30:20.883Z,19.85
2023-05-25T18:35:22.269Z,19.77
2023-05-25T18:40:23.851Z,19.69
2023-05-25T18:45:26.059Z,19.56
2023-05-25T18:50:27.533Z,19.53
2023-05-25T18:55:29.466Z,19.28
2023-05-25T19:00:31.071Z,19.17
2023-05-25T19:05:32.699Z,19.22
2023-05-25T19:10:34.155Z,19.23
2023-05-25T19:15:35.996Z,19.05
2023-05-25T19:20:37.494Z,18.86
2023-05-25T19:25:39.020Z,18.98
2023-05-25T19:30:40.635Z,18.92
2023-05-25T19:35:42.361Z,18.79
2023-05-25T19:40:44.038Z,18.70
2023-05-25T19:45:45.733Z,18.64
2023-05-25T19:50:47.454Z,18.43
2023-05-25T19:55:48.904Z,18.40
2023-05-25T20:00:50.466Z,18.44
2023-05-25T20:05:51.908Z,18.27
2023-05-25T20:10:53.897Z,18.05
2023-05-25T20:15:55.692Z,17.95
2023-05-25T20:20:57.124Z,17.94
2023-05-25T20:25:58.949Z,17.69
2023-05-25T20:31:00.425Z,17.82
2023-05-25T20:36:01.890Z,17.62
2023-05-25T20:41:03.349Z,17.52
2023-05-25T20:46:07.070Z,17.51
2023-05-25T20:51:08.650Z,17.47
2023-05-25T20:56:10.045Z,17.31
2023-05-25T21:01:11.747Z,17.10
2023-05-25T21:06:13.177Z,16.92
2023-05-25T21:11:14.649Z,16.91
2023-05-25T21:16:16.194Z,16.78
2023-05-25T21:21:17.596Z,16.75
2023-05-25T21:26:18.921Z,16.63
2023-05-25T21:31:20.494Z,16.45
2023-05-25T21:36:21.940Z,16.50
2023-05-25T21:41:23.482Z,16.40
2023-05-25T21:46:25.194Z,16.32
2023-05-25T21:51:27.069Z,16.16
2023-05-25T21:56:28.626Z,16.16
2023-05-25T22:01:30.028Z,16.13
2023-05-25T22:06:32.767Z,16.19
2023-05-25T22:11:34.327Z,16.13
2023-05-25T22:16:35.835Z,15.98
2023-05-25T22:21:37.196Z,16.00
2023-05-25T22:26:38.532Z,15.83
2023-05-25T22:31:40.054Z,15.82
2023-05-25T22:36:41.384Z,15.87
2023-05-25T22:41:42.745Z,15.89
2023-05-25T22:46:44.194Z,15.90
2023-05-25T22:51:45.645Z,15.75
2023-05-25T22:56:46.993Z,15.76
2023-05-25T23:01:48.398Z,15.76
2023-05-25T23:06:49.798Z,15.82
2023-05-25T23:11:52.208Z,15.82
2023-05-25T23:16:53.641Z,15.72
2023-05-25T23:21:56.571Z,15.60
2023-05-25T23:26:57.971Z,15.58
2023-05-25T23:31:59.383Z,15.48
2023-05-25T23:37:01.438Z,15.43
2023-05-25T23:42:03.376Z,15.31
2023-05-25T23:47:05.739Z,15.27
2023-05-25T23:52:07.096Z,15.38
2023-05-25T23:57:08.444Z,15.30
